sensor_id;sensor_type;location;lat;lon;timestamp;P1;durP1;ratioP1;P2;durP2;ratioP2
679;SDS011;322;48.846;9.230;2022-09-11T00:01:00;3.20;;;2.50;;
679;SDS011;322;48.846;9.230;2022-09-11T00:03:27;2.10;;;1.90;;
679;SDS011;322;48.846;9.230;2022-09-11T00:05:55;2.43;;;2.23;;
679;SDS011;322;48.846;9.230;2022-09-11T00:08:27;3.90;;;2.60;;
679;SDS011;322;48.846;9.230;2022-09-11T00:11:00;2.83;;;1.83;;
679;SDS011;322;48.846;9.230;2022-09-11T00:13:29;3.80;;;2.33;;
679;SDS011;322;48.846;9.230;2022-09-11T00:15:56;2.50;;;2.30;;
679;SDS011;322;48.846;9.230;2022-09-11T00:18:24;2.50;;;1.97;;
679;SDS011;322;48.846;9.230;2022-09-11T00:20:53;3.40;;;1.97;;
679;SDS011;322;48.846;9.230;2022-09-11T00:23:22;2.90;;;2.57;;
679;SDS011;322;48.846;9.230;2022-09-11T00:25:50;3.33;;;2.40;;
679;SDS011;322;48.846;9.230;2022-09-11T00:28:18;3.93;;;2.20;;
679;SDS011;322;48.846;9.230;2022-09-11T00:30:49;2.57;;;2.33;;
679;SDS011;322;48.846;9.230;2022-09-11T00:33:23;3.43;;;2.30;;
679;SDS011;322;48.846;9.230;2022-09-11T00:35:52;3.10;;;2.20;;
679;SDS011;322;48.846;9.230;2022-09-11T00:38:22;2.80;;;2.17;;
679;SDS011;322;48.846;9.230;2022-09-11T00:40:49;2.87;;;2.13;;
679;SDS011;322;48.846;9.230;2022-09-11T00:43:17;6.93;;;3.27;;
679;SDS011;322;48.846;9.230;2022-09-11T00:45:44;2.87;;;2.63;;
679;SDS011;322;48.846;9.230;2022-09-11T00:48:16;3.20;;;2.50;;
679;SDS011;322;48.846;9.230;2022-09-11T00:50:48;3.20;;;2.60;;
679;SDS011;322;48.846;9.230;2022-09-11T00:53:16;3.37;;;2.30;;
679;SDS011;322;48.846;9.230;2022-09-11T00:55:46;2.97;;;2.67;;
679;SDS011;322;48.846;9.230;2022-09-11T00:58:16;3.60;;;2.60;;
679;SDS011;322;48.846;9.230;2022-09-11T01:00:46;4.33;;;2.87;;
679;SDS011;322;48.846;9.230;2022-09-11T01:03:13;4.77;;;2.50;;
679;SDS011;322;48.846;9.230;2022-09-11T01:05:40;3.50;;;3.20;;
679;SDS011;322;48.846;9.230;2022-09-11T01:08:09;2.80;;;2.57;;
679;SDS011;322;48.846;9.230;2022-09-11T01:10:37;3.60;;;2.40;;
679;SDS011;322;48.846;9.230;2022-09-11T01:13:14;3.13;;;2.50;;
679;SDS011;322;48.846;9.230;2022-09-11T01:15:49;3.30;;;2.00;;
679;SDS011;322;48.846;9.230;2022-09-11T01:18:28;2.40;;;2.20;;
679;SDS011;322;48.846;9.230;2022-09-11T01:21:03;3.40;;;2.60;;
679;SDS011;322;48.846;9.230;2022-09-11T01:24:04;2.90;;;2.43;;
679;SDS011;322;48.846;9.230;2022-09-11T01:26:59;4.37;;;2.33;;
679;SDS011;322;48.846;9.230;2022-09-11T01:29:40;3.30;;;2.60;;
679;SDS011;322;48.846;9.230;2022-09-11T01:32:12;2.30;;;2.10;;
679;SDS011;322;48.846;9.230;2022-09-11T01:34:45;2.70;;;2.50;;
679;SDS011;322;48.846;9.230;2022-09-11T01:37:19;3.10;;;2.13;;
679;SDS011;322;48.846;9.230;2022-09-11T01:39:57;3.60;;;2.30;;
679;SDS011;322;48.846;9.230;2022-09-11T01:42:28;4.10;;;3.00;;
679;SDS011;322;48.846;9.230;2022-09-11T01:45:00;3.80;;;2.70;;
679;SDS011;322;48.846;9.230;2022-09-11T01:47:29;3.20;;;2.13;;
679;SDS011;322;48.846;9.230;2022-09-11T01:50:00;2.40;;;2.20;;
679;SDS011;322;48.846;9.230;2022-09-11T01:52:31;2.53;;;2.33;;
679;SDS011;322;48.846;9.230;2022-09-11T01:55:02;2.90;;;2.60;;
679;SDS011;322;48.846;9.230;2022-09-11T01:57:38;3.90;;;3.60;;
679;SDS011;322;48.846;9.230;2022-09-11T02:00:10;3.17;;;2.70;;
679;SDS011;322;48.846;9.230;2022-09-11T02:02:39;6.07;;;3.10;;
679;SDS011;322;48.846;9.230;2022-09-11T02:05:12;5.43;;;2.60;;
679;SDS011;322;48.846;9.230;2022-09-11T02:07:42;3.60;;;2.90;;
679;SDS011;322;48.846;9.230;2022-09-11T02:10:13;5.33;;;2.77;;
679;SDS011;322;48.846;9.230;2022-09-11T02:12:43;2.83;;;2.47;;
679;SDS011;322;48.846;9.230;2022-09-11T02:15:18;5.37;;;2.80;;
679;SDS011;322;48.846;9.230;2022-09-11T02:17:48;4.77;;;3.10;;
679;SDS011;322;48.846;9.230;2022-09-11T02:20:19;2.67;;;2.47;;
679;SDS011;322;48.846;9.230;2022-09-11T02:22:45;2.90;;;2.60;;
679;SDS011;322;48.846;9.230;2022-09-11T02:25:13;3.83;;;2.70;;
679;SDS011;322;48.846;9.230;2022-09-11T02:27:41;3.87;;;3.40;;
679;SDS011;322;48.846;9.230;2022-09-11T02:30:08;3.43;;;3.17;;
679;SDS011;322;48.846;9.230;2022-09-11T02:32:37;3.70;;;3.40;;
679;SDS011;322;48.846;9.230;2022-09-11T02:35:07;3.60;;;3.17;;
679;SDS011;322;48.846;9.230;2022-09-11T02:37:41;4.53;;;3.90;;
679;SDS011;322;48.846;9.230;2022-09-11T02:40:18;4.53;;;3.37;;
679;SDS011;322;48.846;9.230;2022-09-11T02:43:10;3.40;;;3.20;;
679;SDS011;322;48.846;9.230;2022-09-11T02:45:59;4.10;;;3.10;;
679;SDS011;322;48.846;9.230;2022-09-11T02:49:00;4.10;;;3.77;;
679;SDS011;322;48.846;9.230;2022-09-11T02:51:36;6.80;;;3.53;;
679;SDS011;322;48.846;9.230;2022-09-11T02:54:08;6.30;;;3.90;;
679;SDS011;322;48.846;9.230;2022-09-11T02:56:42;4.60;;;4.20;;
679;SDS011;322;48.846;9.230;2022-09-11T02:59:14;8.07;;;3.60;;
679;SDS011;322;48.846;9.230;2022-09-11T03:01:46;7.13;;;5.00;;
679;SDS011;322;48.846;9.230;2022-09-11T03:04:15;4.60;;;4.20;;
679;SDS011;322;48.846;9.230;2022-09-11T03:06:42;4.67;;;4.27;;
679;SDS011;322;48.846;9.230;2022-09-11T03:09:09;4.30;;;3.90;;
679;SDS011;322;48.846;9.230;2022-09-11T03:11:36;5.07;;;4.40;;
679;SDS011;322;48.846;9.230;2022-09-11T03:14:03;4.70;;;4.30;;
679;SDS011;322;48.846;9.230;2022-09-11T03:16:30;5.60;;;4.97;;
679;SDS011;322;48.846;9.230;2022-09-11T03:18:57;4.93;;;4.63;;
679;SDS011;322;48.846;9.230;2022-09-11T03:21:25;5.17;;;4.47;;
679;SDS011;322;48.846;9.230;2022-09-11T03:23:52;6.00;;;4.17;;
679;SDS011;322;48.846;9.230;2022-09-11T03:26:18;6.50;;;4.80;;
679;SDS011;322;48.846;9.230;2022-09-11T03:28:45;5.53;;;5.07;;
679;SDS011;322;48.846;9.230;2022-09-11T03:31:12;6.40;;;5.20;;
679;SDS011;322;48.846;9.230;2022-09-11T03:33:38;8.00;;;5.13;;
679;SDS011;322;48.846;9.230;2022-09-11T03:36:05;4.93;;;4.43;;
679;SDS011;322;48.846;9.230;2022-09-11T03:38:34;5.63;;;5.03;;
679;SDS011;322;48.846;9.230;2022-09-11T03:41:01;6.97;;;5.00;;
679;SDS011;322;48.846;9.230;2022-09-11T03:43:28;6.00;;;5.40;;
679;SDS011;322;48.846;9.230;2022-09-11T03:45:55;5.83;;;5.20;;
679;SDS011;322;48.846;9.230;2022-09-11T03:48:22;6.40;;;5.17;;
679;SDS011;322;48.846;9.230;2022-09-11T03:50:49;6.70;;;5.80;;
679;SDS011;322;48.846;9.230;2022-09-11T03:53:16;6.27;;;5.70;;
679;SDS011;322;48.846;9.230;2022-09-11T03:55:44;7.40;;;6.03;;
679;SDS011;322;48.846;9.230;2022-09-11T03:58:11;6.17;;;5.47;;
679;SDS011;322;48.846;9.230;2022-09-11T04:00:39;8.00;;;5.30;;
679;SDS011;322;48.846;9.230;2022-09-11T04:03:06;5.80;;;5.20;;
679;SDS011;322;48.846;9.230;2022-09-11T04:05:34;5.80;;;5.27;;
679;SDS011;322;48.846;9.230;2022-09-11T04:08:01;6.53;;;5.67;;
679;SDS011;322;48.846;9.230;2022-09-11T04:10:28;8.10;;;6.17;;
679;SDS011;322;48.846;9.230;2022-09-11T04:12:58;5.83;;;5.20;;
679;SDS011;322;48.846;9.230;2022-09-11T04:15:25;6.17;;;5.67;;
679;SDS011;322;48.846;9.230;2022-09-11T04:17:52;6.57;;;5.00;;
679;SDS011;322;48.846;9.230;2022-09-11T04:20:19;5.93;;;5.33;;
679;SDS011;322;48.846;9.230;2022-09-11T04:22:45;6.90;;;6.23;;
679;SDS011;322;48.846;9.230;2022-09-11T04:25:12;6.03;;;5.43;;
679;SDS011;322;48.846;9.230;2022-09-11T04:27:39;6.13;;;5.53;;
679;SDS011;322;48.846;9.230;2022-09-11T04:30:08;5.97;;;5.10;;
679;SDS011;322;48.846;9.230;2022-09-11T04:32:35;6.40;;;5.53;;
679;SDS011;322;48.846;9.230;2022-09-11T04:35:02;7.17;;;5.97;;
679;SDS011;322;48.846;9.230;2022-09-11T04:37:29;7.90;;;6.20;;
679;SDS011;322;48.846;9.230;2022-09-11T04:39:59;7.47;;;6.43;;
679;SDS011;322;48.846;9.230;2022-09-11T04:42:26;6.70;;;6.10;;
679;SDS011;322;48.846;9.230;2022-09-11T04:44:53;6.57;;;5.93;;
679;SDS011;322;48.846;9.230;2022-09-11T04:47:21;7.00;;;6.40;;
679;SDS011;322;48.846;9.230;2022-09-11T04:49:48;6.93;;;5.73;;
679;SDS011;322;48.846;9.230;2022-09-11T04:52:16;7.80;;;7.03;;
679;SDS011;322;48.846;9.230;2022-09-11T04:54:42;7.37;;;6.63;;
679;SDS011;322;48.846;9.230;2022-09-11T04:57:10;11.03;;;7.47;;
679;SDS011;322;48.846;9.230;2022-09-11T04:59:38;7.07;;;6.37;;
679;SDS011;322;48.846;9.230;2022-09-11T05:02:05;7.17;;;6.40;;
679;SDS011;322;48.846;9.230;2022-09-11T05:04:33;7.43;;;6.83;;
679;SDS011;322;48.846;9.230;2022-09-11T05:07:00;7.60;;;7.00;;
679;SDS011;322;48.846;9.230;2022-09-11T05:09:27;7.93;;;7.00;;
679;SDS011;322;48.846;9.230;2022-09-11T05:11:53;8.57;;;6.97;;
679;SDS011;322;48.846;9.230;2022-09-11T05:14:20;8.13;;;7.43;;
679;SDS011;322;48.846;9.230;2022-09-11T05:16:47;10.37;;;6.87;;
679;SDS011;322;48.846;9.230;2022-09-11T05:19:16;6.93;;;6.23;;
679;SDS011;322;48.846;9.230;2022-09-11T05:21:44;10.73;;;7.10;;
679;SDS011;322;48.846;9.230;2022-09-11T05:24:11;8.03;;;6.73;;
679;SDS011;322;48.846;9.230;2022-09-11T05:26:38;7.40;;;6.70;;
679;SDS011;322;48.846;9.230;2022-09-11T05:29:06;8.23;;;7.40;;
679;SDS011;322;48.846;9.230;2022-09-11T05:31:35;7.07;;;6.37;;
679;SDS011;322;48.846;9.230;2022-09-11T05:34:02;10.03;;;7.67;;
679;SDS011;322;48.846;9.230;2022-09-11T05:36:30;7.50;;;6.80;;
679;SDS011;322;48.846;9.230;2022-09-11T05:38:58;7.33;;;6.63;;
679;SDS011;322;48.846;9.230;2022-09-11T05:41:25;7.10;;;6.50;;
679;SDS011;322;48.846;9.230;2022-09-11T05:43:52;8.60;;;7.80;;
679;SDS011;322;48.846;9.230;2022-09-11T05:46:19;10.30;;;6.93;;
679;SDS011;322;48.846;9.230;2022-09-11T05:48:46;7.60;;;6.90;;
679;SDS011;322;48.846;9.230;2022-09-11T05:51:14;8.60;;;6.63;;
679;SDS011;322;48.846;9.230;2022-09-11T05:53:44;10.27;;;7.20;;
679;SDS011;322;48.846;9.230;2022-09-11T05:56:13;7.40;;;6.80;;
679;SDS011;322;48.846;9.230;2022-09-11T05:58:41;10.30;;;6.87;;
679;SDS011;322;48.846;9.230;2022-09-11T06:01:09;8.03;;;7.23;;
679;SDS011;322;48.846;9.230;2022-09-11T06:03:37;8.13;;;6.50;;
679;SDS011;322;48.846;9.230;2022-09-11T06:06:05;7.40;;;6.60;;
679;SDS011;322;48.846;9.230;2022-09-11T06:08:33;6.90;;;6.20;;
679;SDS011;322;48.846;9.230;2022-09-11T06:11:01;7.30;;;6.57;;
679;SDS011;322;48.846;9.230;2022-09-11T06:13:32;8.57;;;7.40;;
679;SDS011;322;48.846;9.230;2022-09-11T06:16:00;8.80;;;6.50;;
679;SDS011;322;48.846;9.230;2022-09-11T06:18:28;7.20;;;6.50;;
679;SDS011;322;48.846;9.230;2022-09-11T06:20:55;6.87;;;6.17;;
679;SDS011;322;48.846;9.230;2022-09-11T06:23:22;8.43;;;7.73;;
679;SDS011;322;48.846;9.230;2022-09-11T06:25:50;10.03;;;9.00;;
679;SDS011;322;48.846;9.230;2022-09-11T06:28:18;9.33;;;7.67;;
679;SDS011;322;48.846;9.230;2022-09-11T06:30:48;9.20;;;8.30;;
679;SDS011;322;48.846;9.230;2022-09-11T06:33:15;8.90;;;8.00;;
679;SDS011;322;48.846;9.230;2022-09-11T06:35:44;11.10;;;7.20;;
679;SDS011;322;48.846;9.230;2022-09-11T06:38:21;8.33;;;7.70;;
679;SDS011;322;48.846;9.230;2022-09-11T06:40:48;11.57;;;8.20;;
679;SDS011;322;48.846;9.230;2022-09-11T06:43:15;8.47;;;7.67;;
679;SDS011;322;48.846;9.230;2022-09-11T06:45:42;8.73;;;7.67;;
679;SDS011;322;48.846;9.230;2022-09-11T06:48:11;9.60;;;8.60;;
679;SDS011;322;48.846;9.230;2022-09-11T06:50:38;9.73;;;8.40;;
679;SDS011;322;48.846;9.230;2022-09-11T06:53:05;10.87;;;7.60;;
679;SDS011;322;48.846;9.230;2022-09-11T06:55:32;9.20;;;8.40;;
679;SDS011;322;48.846;9.230;2022-09-11T06:57:59;9.17;;;8.27;;
679;SDS011;322;48.846;9.230;2022-09-11T07:00:27;9.67;;;8.40;;
679;SDS011;322;48.846;9.230;2022-09-11T07:02:55;8.00;;;7.33;;
679;SDS011;322;48.846;9.230;2022-09-11T07:05:23;10.60;;;8.33;;
679;SDS011;322;48.846;9.230;2022-09-11T07:07:51;9.40;;;8.60;;
679;SDS011;322;48.846;9.230;2022-09-11T07:10:18;8.80;;;7.77;;
679;SDS011;322;48.846;9.230;2022-09-11T07:12:44;9.33;;;8.43;;
679;SDS011;322;48.846;9.230;2022-09-11T07:15:11;8.70;;;7.90;;
679;SDS011;322;48.846;9.230;2022-09-11T07:17:38;10.93;;;8.10;;
679;SDS011;322;48.846;9.230;2022-09-11T07:20:06;10.40;;;7.93;;
679;SDS011;322;48.846;9.230;2022-09-11T07:22:34;8.47;;;7.77;;
679;SDS011;322;48.846;9.230;2022-09-11T07:25:01;8.43;;;7.47;;
679;SDS011;322;48.846;9.230;2022-09-11T07:27:29;16.20;;;8.70;;
679;SDS011;322;48.846;9.230;2022-09-11T07:29:57;9.33;;;8.50;;
679;SDS011;322;48.846;9.230;2022-09-11T07:32:24;7.87;;;7.07;;
679;SDS011;322;48.846;9.230;2022-09-11T07:34:51;8.70;;;7.90;;
679;SDS011;322;48.846;9.230;2022-09-11T07:37:17;9.20;;;8.43;;
679;SDS011;322;48.846;9.230;2022-09-11T07:39:46;9.70;;;8.70;;
679;SDS011;322;48.846;9.230;2022-09-11T07:42:12;8.70;;;7.80;;
679;SDS011;322;48.846;9.230;2022-09-11T07:44:39;9.13;;;8.00;;
679;SDS011;322;48.846;9.230;2022-09-11T07:47:06;8.90;;;8.07;;
679;SDS011;322;48.846;9.230;2022-09-11T07:49:33;8.40;;;7.67;;
679;SDS011;322;48.846;9.230;2022-09-11T07:52:00;8.07;;;7.30;;
679;SDS011;322;48.846;9.230;2022-09-11T07:54:27;9.87;;;9.03;;
679;SDS011;322;48.846;9.230;2022-09-11T07:56:56;7.90;;;7.10;;
679;SDS011;322;48.846;9.230;2022-09-11T07:59:23;8.53;;;7.13;;
679;SDS011;322;48.846;9.230;2022-09-11T08:01:49;8.82;;;8.13;;
679;SDS011;322;48.846;9.230;2022-09-11T08:04:17;8.60;;;7.90;;
679;SDS011;322;48.846;9.230;2022-09-11T08:06:43;9.40;;;8.60;;
679;SDS011;322;48.846;9.230;2022-09-11T08:09:11;9.10;;;8.17;;
679;SDS011;322;48.846;9.230;2022-09-11T08:11:41;9.50;;;8.27;;
679;SDS011;322;48.846;9.230;2022-09-11T08:14:13;8.93;;;8.10;;
679;SDS011;322;48.846;9.230;2022-09-11T08:16:41;9.23;;;8.43;;
679;SDS011;322;48.846;9.230;2022-09-11T08:19:09;10.57;;;7.90;;
679;SDS011;322;48.846;9.230;2022-09-11T08:21:41;9.00;;;8.20;;
679;SDS011;322;48.846;9.230;2022-09-11T08:24:10;7.93;;;7.13;;
679;SDS011;322;48.846;9.230;2022-09-11T08:26:37;7.83;;;7.13;;
679;SDS011;322;48.846;9.230;2022-09-11T08:29:03;8.40;;;7.53;;
679;SDS011;322;48.846;9.230;2022-09-11T08:31:32;7.47;;;6.87;;
679;SDS011;322;48.846;9.230;2022-09-11T08:33:59;8.90;;;8.10;;
679;SDS011;322;48.846;9.230;2022-09-11T08:36:26;9.40;;;8.00;;
679;SDS011;322;48.846;9.230;2022-09-11T08:38:53;8.27;;;6.87;;
679;SDS011;322;48.846;9.230;2022-09-11T08:41:27;10.50;;;7.97;;
679;SDS011;322;48.846;9.230;2022-09-11T08:44:00;8.60;;;7.80;;
679;SDS011;322;48.846;9.230;2022-09-11T08:46:33;8.57;;;7.40;;
679;SDS011;322;48.846;9.230;2022-09-11T08:49:03;8.90;;;7.70;;
679;SDS011;322;48.846;9.230;2022-09-11T08:51:35;8.47;;;7.60;;
679;SDS011;322;48.846;9.230;2022-09-11T08:54:03;8.60;;;7.80;;
679;SDS011;322;48.846;9.230;2022-09-11T08:56:31;8.80;;;7.97;;
679;SDS011;322;48.846;9.230;2022-09-11T08:59:17;7.83;;;7.23;;
679;SDS011;322;48.846;9.230;2022-09-11T09:01:54;7.70;;;6.70;;
679;SDS011;322;48.846;9.230;2022-09-11T09:04:41;9.20;;;6.77;;
679;SDS011;322;48.846;9.230;2022-09-11T09:07:25;7.00;;;6.40;;
679;SDS011;322;48.846;9.230;2022-09-11T09:10:01;8.30;;;7.60;;
679;SDS011;322;48.846;9.230;2022-09-11T09:12:35;10.63;;;8.87;;
679;SDS011;322;48.846;9.230;2022-09-11T09:15:14;7.83;;;7.10;;
679;SDS011;322;48.846;9.230;2022-09-11T09:17:52;9.57;;;8.73;;
679;SDS011;322;48.846;9.230;2022-09-11T09:20:24;8.37;;;6.60;;
679;SDS011;322;48.846;9.230;2022-09-11T09:22:55;7.83;;;7.20;;
679;SDS011;322;48.846;9.230;2022-09-11T09:25:26;8.23;;;5.90;;
679;SDS011;322;48.846;9.230;2022-09-11T09:27:56;6.17;;;5.57;;
679;SDS011;322;48.846;9.230;2022-09-11T09:30:29;7.37;;;6.67;;
679;SDS011;322;48.846;9.230;2022-09-11T09:33:06;7.90;;;7.20;;
679;SDS011;322;48.846;9.230;2022-09-11T09:35:44;6.70;;;6.23;;
679;SDS011;322;48.846;9.230;2022-09-11T09:38:12;6.93;;;6.30;;
679;SDS011;322;48.846;9.230;2022-09-11T09:40:40;6.87;;;6.30;;
679;SDS011;322;48.846;9.230;2022-09-11T09:43:16;7.13;;;6.40;;
679;SDS011;322;48.846;9.230;2022-09-11T09:45:55;6.83;;;6.30;;
679;SDS011;322;48.846;9.230;2022-09-11T09:48:40;7.07;;;6.37;;
679;SDS011;322;48.846;9.230;2022-09-11T09:51:09;8.00;;;7.20;;
679;SDS011;322;48.846;9.230;2022-09-11T09:53:38;7.53;;;6.50;;
679;SDS011;322;48.846;9.230;2022-09-11T09:56:08;13.10;;;9.00;;
679;SDS011;322;48.846;9.230;2022-09-11T09:58:38;8.17;;;7.27;;
679;SDS011;322;48.846;9.230;2022-09-11T10:04:14;6.17;;;5.67;;
679;SDS011;322;48.846;9.230;2022-09-11T10:06:42;7.47;;;6.87;;
679;SDS011;322;48.846;9.230;2022-09-11T10:09:17;6.67;;;6.17;;
679;SDS011;322;48.846;9.230;2022-09-11T10:11:50;7.20;;;6.50;;
679;SDS011;322;48.846;9.230;2022-09-11T10:14:25;7.20;;;6.30;;
679;SDS011;322;48.846;9.230;2022-09-11T10:16:54;7.30;;;6.53;;
679;SDS011;322;48.846;9.230;2022-09-11T10:19:36;7.67;;;6.97;;
679;SDS011;322;48.846;9.230;2022-09-11T10:22:23;6.93;;;6.33;;
679;SDS011;322;48.846;9.230;2022-09-11T10:24:57;7.40;;;6.80;;
679;SDS011;322;48.846;9.230;2022-09-11T10:27:26;7.90;;;7.20;;
679;SDS011;322;48.846;9.230;2022-09-11T10:29:53;8.20;;;7.30;;
679;SDS011;322;48.846;9.230;2022-09-11T10:32:21;8.07;;;6.50;;
679;SDS011;322;48.846;9.230;2022-09-11T10:34:50;9.13;;;8.10;;
679;SDS011;322;48.846;9.230;2022-09-11T10:37:20;8.23;;;7.40;;
679;SDS011;322;48.846;9.230;2022-09-11T10:39:50;7.10;;;6.50;;
679;SDS011;322;48.846;9.230;2022-09-11T10:42:18;7.47;;;6.73;;
679;SDS011;322;48.846;9.230;2022-09-11T10:44:50;7.53;;;6.70;;
679;SDS011;322;48.846;9.230;2022-09-11T10:47:21;7.20;;;6.60;;
679;SDS011;322;48.846;9.230;2022-09-11T10:49:51;7.00;;;6.03;;
679;SDS011;322;48.846;9.230;2022-09-11T10:52:45;7.43;;;6.73;;
679;SDS011;322;48.846;9.230;2022-09-11T10:55:16;7.10;;;6.50;;
679;SDS011;322;48.846;9.230;2022-09-11T10:57:45;7.00;;;6.40;;
679;SDS011;322;48.846;9.230;2022-09-11T11:00:17;6.93;;;6.23;;
679;SDS011;322;48.846;9.230;2022-09-11T11:02:45;6.90;;;6.20;;
679;SDS011;322;48.846;9.230;2022-09-11T11:05:20;6.43;;;5.80;;
679;SDS011;322;48.846;9.230;2022-09-11T11:07:57;7.03;;;6.20;;
679;SDS011;322;48.846;9.230;2022-09-11T11:10:42;6.30;;;5.80;;
679;SDS011;322;48.846;9.230;2022-09-11T11:13:24;6.30;;;5.80;;
679;SDS011;322;48.846;9.230;2022-09-11T11:16:04;7.30;;;6.70;;
679;SDS011;322;48.846;9.230;2022-09-11T11:21:36;7.47;;;6.87;;
679;SDS011;322;48.846;9.230;2022-09-11T11:24:22;5.70;;;5.20;;
679;SDS011;322;48.846;9.230;2022-09-11T11:27:20;6.43;;;5.83;;
679;SDS011;322;48.846;9.230;2022-09-11T11:30:10;6.27;;;5.77;;
679;SDS011;322;48.846;9.230;2022-09-11T11:32:45;5.90;;;5.40;;
679;SDS011;322;48.846;9.230;2022-09-11T11:35:28;6.27;;;5.70;;
679;SDS011;322;48.846;9.230;2022-09-11T11:38:02;6.77;;;5.90;;
679;SDS011;322;48.846;9.230;2022-09-11T11:40:35;6.63;;;6.03;;
679;SDS011;322;48.846;9.230;2022-09-11T11:43:08;6.80;;;6.30;;
679;SDS011;322;48.846;9.230;2022-09-11T11:45:38;8.30;;;6.13;;
679;SDS011;322;48.846;9.230;2022-09-11T11:48:11;6.57;;;6.00;;
679;SDS011;322;48.846;9.230;2022-09-11T11:50:41;7.30;;;6.70;;
679;SDS011;322;48.846;9.230;2022-09-11T11:53:15;7.57;;;5.90;;
679;SDS011;322;48.846;9.230;2022-09-11T11:55:49;6.37;;;5.87;;
679;SDS011;322;48.846;9.230;2022-09-11T11:58:31;5.30;;;4.90;;
679;SDS011;322;48.846;9.230;2022-09-11T12:01:09;5.10;;;4.60;;
679;SDS011;322;48.846;9.230;2022-09-11T12:03:43;4.90;;;4.50;;
679;SDS011;322;48.846;9.230;2022-09-11T12:06:15;5.27;;;4.87;;
679;SDS011;322;48.846;9.230;2022-09-11T12:08:44;4.93;;;4.37;;
679;SDS011;322;48.846;9.230;2022-09-11T12:11:12;5.23;;;4.73;;
679;SDS011;322;48.846;9.230;2022-09-11T12:13:42;4.83;;;4.43;;
679;SDS011;322;48.846;9.230;2022-09-11T12:16:14;5.63;;;5.20;;
679;SDS011;322;48.846;9.230;2022-09-11T12:19:00;6.10;;;5.60;;
679;SDS011;322;48.846;9.230;2022-09-11T12:21:37;6.63;;;5.90;;
679;SDS011;322;48.846;9.230;2022-09-11T12:24:11;6.37;;;5.77;;
679;SDS011;322;48.846;9.230;2022-09-11T12:26:41;6.70;;;6.10;;
679;SDS011;322;48.846;9.230;2022-09-11T12:32:26;6.37;;;5.77;;
679;SDS011;322;48.846;9.230;2022-09-11T12:38:00;5.97;;;5.47;;
679;SDS011;322;48.846;9.230;2022-09-11T12:40:32;6.03;;;5.53;;
679;SDS011;322;48.846;9.230;2022-09-11T12:45:53;6.20;;;5.40;;
679;SDS011;322;48.846;9.230;2022-09-11T12:48:21;5.90;;;5.50;;
679;SDS011;322;48.846;9.230;2022-09-11T12:50:51;6.17;;;5.67;;
679;SDS011;322;48.846;9.230;2022-09-11T12:53:21;6.33;;;5.73;;
679;SDS011;322;48.846;9.230;2022-09-11T12:55:56;6.57;;;5.97;;
679;SDS011;322;48.846;9.230;2022-09-11T12:58:29;7.13;;;6.43;;
679;SDS011;322;48.846;9.230;2022-09-11T13:01:01;6.03;;;5.43;;
679;SDS011;322;48.846;9.230;2022-09-11T13:03:31;6.60;;;6.10;;
679;SDS011;322;48.846;9.230;2022-09-11T13:05:59;6.37;;;5.87;;
679;SDS011;322;48.846;9.230;2022-09-11T13:08:30;7.17;;;6.57;;
679;SDS011;322;48.846;9.230;2022-09-11T13:14:21;6.80;;;6.20;;
679;SDS011;322;48.846;9.230;2022-09-11T13:17:26;7.23;;;6.60;;
679;SDS011;322;48.846;9.230;2022-09-11T13:19:55;6.73;;;6.00;;
679;SDS011;322;48.846;9.230;2022-09-11T13:22:43;6.13;;;5.73;;
679;SDS011;322;48.846;9.230;2022-09-11T13:25:10;7.90;;;5.70;;
679;SDS011;322;48.846;9.230;2022-09-11T13:27:40;7.30;;;6.70;;
679;SDS011;322;48.846;9.230;2022-09-11T13:30:09;6.50;;;5.90;;
679;SDS011;322;48.846;9.230;2022-09-11T13:32:38;6.93;;;6.33;;
679;SDS011;322;48.846;9.230;2022-09-11T13:35:08;6.30;;;5.80;;
679;SDS011;322;48.846;9.230;2022-09-11T13:37:39;7.13;;;6.53;;
679;SDS011;322;48.846;9.230;2022-09-11T13:40:14;7.17;;;6.47;;
679;SDS011;322;48.846;9.230;2022-09-11T13:42:45;7.13;;;6.60;;
679;SDS011;322;48.846;9.230;2022-09-11T13:45:14;7.97;;;7.10;;
679;SDS011;322;48.846;9.230;2022-09-11T13:47:43;6.67;;;6.13;;
679;SDS011;322;48.846;9.230;2022-09-11T13:50:10;7.00;;;6.40;;
679;SDS011;322;48.846;9.230;2022-09-11T13:52:38;8.63;;;7.80;;
679;SDS011;322;48.846;9.230;2022-09-11T13:55:08;7.30;;;6.60;;
679;SDS011;322;48.846;9.230;2022-09-11T13:57:50;6.13;;;5.63;;
679;SDS011;322;48.846;9.230;2022-09-11T14:03:05;6.70;;;6.20;;
679;SDS011;322;48.846;9.230;2022-09-11T14:05:47;6.73;;;6.00;;
679;SDS011;322;48.846;9.230;2022-09-11T14:08:19;6.10;;;5.57;;
679;SDS011;322;48.846;9.230;2022-09-11T14:10:48;6.30;;;5.80;;
679;SDS011;322;48.846;9.230;2022-09-11T14:13:20;6.50;;;6.00;;
679;SDS011;322;48.846;9.230;2022-09-11T14:15:52;6.30;;;5.67;;
679;SDS011;322;48.846;9.230;2022-09-11T14:18:23;5.73;;;5.23;;
679;SDS011;322;48.846;9.230;2022-09-11T14:20:54;6.00;;;5.50;;
679;SDS011;322;48.846;9.230;2022-09-11T14:23:25;4.90;;;4.50;;
679;SDS011;322;48.846;9.230;2022-09-11T14:26:06;5.87;;;5.37;;
679;SDS011;322;48.846;9.230;2022-09-11T14:28:46;5.10;;;4.70;;
679;SDS011;322;48.846;9.230;2022-09-11T14:31:28;6.33;;;5.70;;
679;SDS011;322;48.846;9.230;2022-09-11T14:34:11;4.80;;;4.30;;
679;SDS011;322;48.846;9.230;2022-09-11T14:36:41;4.47;;;4.07;;
679;SDS011;322;48.846;9.230;2022-09-11T14:39:17;5.90;;;4.63;;
679;SDS011;322;48.846;9.230;2022-09-11T14:41:50;4.63;;;4.23;;
679;SDS011;322;48.846;9.230;2022-09-11T14:44:20;4.10;;;3.80;;
679;SDS011;322;48.846;9.230;2022-09-11T14:46:50;4.60;;;4.20;;
679;SDS011;322;48.846;9.230;2022-09-11T14:49:17;4.10;;;3.80;;
679;SDS011;322;48.846;9.230;2022-09-11T14:51:45;4.17;;;3.87;;
679;SDS011;322;48.846;9.230;2022-09-11T14:54:17;4.50;;;4.10;;
679;SDS011;322;48.846;9.230;2022-09-11T14:56:46;4.60;;;4.30;;
679;SDS011;322;48.846;9.230;2022-09-11T14:59:13;5.53;;;5.03;;
679;SDS011;322;48.846;9.230;2022-09-11T15:01:41;4.83;;;4.50;;
679;SDS011;322;48.846;9.230;2022-09-11T15:04:09;4.87;;;4.43;;
679;SDS011;322;48.846;9.230;2022-09-11T15:06:40;5.67;;;5.27;;
679;SDS011;322;48.846;9.230;2022-09-11T15:09:07;4.23;;;3.93;;
679;SDS011;322;48.846;9.230;2022-09-11T15:11:34;5.00;;;4.60;;
679;SDS011;322;48.846;9.230;2022-09-11T15:14:01;4.10;;;3.80;;
679;SDS011;322;48.846;9.230;2022-09-11T15:16:28;4.20;;;3.80;;
679;SDS011;322;48.846;9.230;2022-09-11T15:18:56;3.43;;;3.23;;
679;SDS011;322;48.846;9.230;2022-09-11T15:21:22;3.80;;;3.50;;
679;SDS011;322;48.846;9.230;2022-09-11T15:23:49;3.80;;;3.50;;
679;SDS011;322;48.846;9.230;2022-09-11T15:26:19;3.90;;;3.53;;
679;SDS011;322;48.846;9.230;2022-09-11T15:28:46;4.70;;;4.30;;
679;SDS011;322;48.846;9.230;2022-09-11T15:31:15;4.23;;;3.90;;
679;SDS011;322;48.846;9.230;2022-09-11T15:33:42;6.27;;;5.80;;
679;SDS011;322;48.846;9.230;2022-09-11T15:36:13;4.53;;;4.13;;
679;SDS011;322;48.846;9.230;2022-09-11T15:38:40;4.97;;;4.57;;
679;SDS011;322;48.846;9.230;2022-09-11T15:41:06;4.90;;;4.50;;
679;SDS011;322;48.846;9.230;2022-09-11T15:43:35;4.60;;;4.30;;
679;SDS011;322;48.846;9.230;2022-09-11T15:46:06;5.10;;;4.70;;
679;SDS011;322;48.846;9.230;2022-09-11T15:48:35;4.83;;;4.53;;
679;SDS011;322;48.846;9.230;2022-09-11T15:51:02;4.60;;;4.30;;
679;SDS011;322;48.846;9.230;2022-09-11T15:53:32;5.07;;;4.70;;
679;SDS011;322;48.846;9.230;2022-09-11T15:56:01;4.57;;;4.27;;
679;SDS011;322;48.846;9.230;2022-09-11T15:58:29;5.00;;;4.60;;
679;SDS011;322;48.846;9.230;2022-09-11T16:00:56;4.93;;;4.63;;
679;SDS011;322;48.846;9.230;2022-09-11T16:03:24;4.50;;;4.20;;
679;SDS011;322;48.846;9.230;2022-09-11T16:05:51;4.33;;;4.03;;
679;SDS011;322;48.846;9.230;2022-09-11T16:08:18;4.47;;;4.17;;
679;SDS011;322;48.846;9.230;2022-09-11T16:10:48;4.27;;;3.87;;
679;SDS011;322;48.846;9.230;2022-09-11T16:13:15;4.77;;;4.40;;
679;SDS011;322;48.846;9.230;2022-09-11T16:15:42;4.40;;;4.10;;
679;SDS011;322;48.846;9.230;2022-09-11T16:18:09;4.60;;;4.20;;
679;SDS011;322;48.846;9.230;2022-09-11T16:20:36;4.80;;;4.37;;
679;SDS011;322;48.846;9.230;2022-09-11T16:23:07;4.90;;;4.47;;
679;SDS011;322;48.846;9.230;2022-09-11T16:25:36;5.67;;;5.23;;
679;SDS011;322;48.846;9.230;2022-09-11T16:28:05;5.03;;;4.63;;